Time;durP1;ratioP1;P1;durP2;ratioP2;P2;SDS_P1;SDS_P2;PMS_P1;PMS_P2;Temp;Humidity;BMP_temperature;BMP_pressure;BME280_temperature;BME280_humidity;BME280_pressure;Samples;Min_cycle;Max_cycle;Signal;HPM_P1;HPM_P2
2022/11/26 00:01:19;;;;;;;24.90;14.70;;;8.80;99.90;;;;;;5044998;28;20511;-83
2022/11/26 00:03:45;;;;;;;21.42;12.73;;;8.80;99.90;;;;;;5054066;28;20025;-82
2022/11/26 00:06:22;;;;;;;22.20;12.60;;;8.80;99.90;;;;;;5067866;28;20032;-83
2022/11/26 00:08:48;;;;;;;20.95;13.43;;;8.80;99.90;;;;;;5064828;28;20059;-83
2022/11/26 00:11:15;;;;;;;21.58;13.02;;;8.80;99.90;;;;;;5066883;28;20024;-83
2022/11/26 00:13:41;;;;;;;21.77;13.77;;;8.80;99.90;;;;;;5050388;28;20017;-83
2022/11/26 00:16:14;;;;;;;21.42;12.65;;;8.80;99.90;;;;;;5060519;28;20071;-83
2022/11/26 00:18:43;;;;;;;18.92;12.52;;;8.80;99.90;;;;;;5060128;28;20108;-83
2022/11/26 00:21:16;;;;;;;18.88;11.80;;;8.80;99.90;;;;;;5078411;28;20392;-83
2022/11/26 00:23:43;;;;;;;21.00;12.70;;;8.80;99.90;;;;;;5077259;28;20016;-83
2022/11/26 00:26:15;;;;;;;19.85;12.38;;;8.80;99.90;;;;;;5056858;28;20400;-83
2022/11/26 00:28:54;;;;;;;17.17;12.13;;;8.80;99.90;;;;;;5077941;28;20017;-83
2022/11/26 00:31:20;;;;;;;19.88;12.15;;;8.80;99.90;;;;;;5077835;28;20021;-83
2022/11/26 00:33:46;;;;;;;18.60;11.45;;;8.80;99.90;;;;;;5070832;28;20031;-82
2022/11/26 00:36:18;;;;;;;18.38;12.30;;;8.80;99.90;;;;;;5063580;28;20021;-83
2022/11/26 00:38:46;;;;;;;19.05;12.40;;;8.70;99.90;;;;;;5046464;28;20025;-82
2022/11/26 00:41:18;;;;;;;17.55;11.15;;;8.70;99.90;;;;;;5067047;28;20029;-81
2022/11/26 00:43:44;;;;;;;18.20;12.32;;;8.80;99.90;;;;;;5059687;28;20028;-82
2022/11/26 00:46:18;;;;;;;20.08;10.77;;;8.80;99.90;;;;;;5050702;28;20056;-82
2022/11/26 00:48:45;;;;;;;14.63;10.70;;;8.80;99.90;;;;;;5054359;28;20032;-82
2022/11/26 00:51:23;;;;;;;18.35;11.82;;;8.80;99.90;;;;;;5061656;28;20103;-82
2022/11/26 00:53:52;;;;;;;15.95;11.15;;;8.60;99.90;;;;;;5059873;28;20024;-82
2022/11/26 00:56:20;;;;;;;22.35;13.50;;;8.60;99.90;;;;;;5059399;28;20028;-82
2022/11/26 00:58:47;;;;;;;17.63;12.35;;;8.60;99.90;;;;;;5059846;28;20528;-83
2022/11/26 01:01:16;;;;;;;19.25;12.23;;;8.70;99.90;;;;;;5077109;28;20024;-82
2022/11/26 01:03:42;;;;;;;18.65;11.73;;;8.60;99.90;;;;;;5058611;28;20070;-82
2022/11/26 01:06:19;;;;;;;18.63;11.40;;;8.60;99.90;;;;;;5077542;28;20103;-83
2022/11/26 01:08:44;;;;;;;17.60;11.50;;;8.60;99.90;;;;;;5063039;28;20109;-82
2022/11/26 01:11:15;;;;;;;18.10;12.00;;;8.70;99.90;;;;;;5065583;28;20052;-82
2022/11/26 01:13:43;;;;;;;18.98;11.70;;;8.60;99.90;;;;;;5059499;28;20031;-83
2022/11/26 01:16:19;;;;;;;21.05;12.07;;;8.50;99.90;;;;;;5077706;28;20039;-82
2022/11/26 01:18:47;;;;;;;17.88;12.02;;;8.50;99.90;;;;;;5052475;28;20027;-82
2022/11/26 01:21:13;;;;;;;14.85;10.52;;;8.50;99.90;;;;;;5049530;28;20041;-82
2022/11/26 01:23:39;;;;;;;20.48;12.55;;;8.50;99.90;;;;;;5055830;28;20341;-82
2022/11/26 01:26:05;;;;;;;19.23;11.18;;;8.40;99.90;;;;;;5050984;28;20032;-82
2022/11/26 01:28:31;;;;;;;19.00;11.70;;;8.40;99.90;;;;;;5056393;28;20031;-82
2022/11/26 01:30:57;;;;;;;17.55;10.65;;;8.30;99.90;;;;;;5077505;28;20029;-82
2022/11/26 01:33:22;;;;;;;15.65;9.82;;;8.30;99.90;;;;;;5059225;28;20035;-82
2022/11/26 01:35:48;;;;;;;18.52;11.13;;;8.30;99.90;;;;;;5073010;28;20504;-82
2022/11/26 01:38:14;;;;;;;17.33;10.25;;;8.30;99.90;;;;;;5060709;28;20025;-82
2022/11/26 01:40:57;;;;;;;18.38;10.45;;;8.40;99.90;;;;;;5077035;28;20035;-82
2022/11/26 01:43:32;;;;;;;14.45;10.10;;;8.40;99.90;;;;;;5059189;28;20051;-82
2022/11/26 01:45:57;;;;;;;16.42;9.85;;;8.50;99.90;;;;;;5077003;28;20031;-82
2022/11/26 01:48:26;;;;;;;18.63;11.13;;;8.50;99.90;;;;;;5058947;28;20020;-82
2022/11/26 01:51:09;;;;;;;15.70;9.70;;;8.50;99.90;;;;;;5076940;28;20513;-82
2022/11/26 01:53:37;;;;;;;17.08;10.45;;;8.60;99.90;;;;;;5077097;28;20029;-82
2022/11/26 01:56:15;;;;;;;16.45;10.18;;;8.60;99.90;;;;;;5076623;28;20032;-82
2022/11/26 01:58:45;;;;;;;16.58;9.85;;;8.60;99.90;;;;;;5061006;28;20027;-82
2022/11/26 02:01:11;;;;;;;17.92;10.50;;;8.50;99.90;;;;;;5062776;28;20038;-83
2022/11/26 02:03:48;;;;;;;14.20;9.02;;;8.50;99.90;;;;;;5062843;28;20123;-83
2022/11/26 02:06:19;;;;;;;15.02;9.48;;;8.50;99.90;;;;;;5044890;28;20084;-82
2022/11/26 02:08:45;;;;;;;13.68;8.75;;;8.50;99.90;;;;;;5062014;28;20503;-82
2022/11/26 02:11:17;;;;;;;11.20;6.57;;;8.50;99.90;;;;;;5050469;28;20043;-81
2022/11/26 02:13:46;;;;;;;11.95;6.22;;;8.50;99.90;;;;;;5054234;28;20441;-82
2022/11/26 02:16:19;;;;;;;10.68;6.28;;;8.50;99.90;;;;;;5070531;28;20028;-82
2022/11/26 02:19:01;;;;;;;10.30;5.85;;;8.60;99.90;;;;;;5057679;28;20404;-82
2022/11/26 02:21:27;;;;;;;11.15;6.78;;;8.60;99.90;;;;;;5066103;28;20029;-82
2022/11/26 02:24:08;;;;;;;11.35;6.20;;;8.60;99.90;;;;;;5070018;28;20025;-82
2022/11/26 02:26:49;;;;;;;11.27;5.22;;;8.60;99.90;;;;;;5056347;28;20016;-82
2022/11/26 02:29:47;;;;;;;10.73;4.80;;;8.60;99.90;;;;;;5054262;28;20025;-82
2022/11/26 02:32:18;;;;;;;6.88;4.07;;;8.50;99.90;;;;;;5065156;28;20096;-82
2022/11/26 02:34:57;;;;;;;8.38;4.35;;;8.60;99.90;;;;;;5052455;28;20143;-82
2022/11/26 02:37:44;;;;;;;10.63;4.82;;;8.60;99.90;;;;;;5062872;28;20021;-82
2022/11/26 02:40:10;;;;;;;6.78;4.05;;;8.60;99.90;;;;;;5066912;28;20020;-81
2022/11/26 02:42:36;;;;;;;8.68;4.78;;;8.60;99.90;;;;;;5062279;28;20024;-82
2022/11/26 02:45:04;;;;;;;8.93;4.88;;;8.60;99.90;;;;;;5080162;28;20103;-82
2022/11/26 02:47:32;;;;;;;10.38;5.32;;;8.60;99.90;;;;;;5061777;28;20020;-81
2022/11/26 02:50:01;;;;;;;7.90;4.50;;;8.50;99.90;;;;;;5062171;28;20035;-82
2022/11/26 02:52:29;;;;;;;11.20;4.53;;;8.50;99.90;;;;;;5056950;28;20099;-81
2022/11/26 02:54:55;;;;;;;10.70;4.00;;;8.60;99.90;;;;;;5080109;28;20100;-81
2022/11/26 02:57:26;;;;;;;8.98;4.10;;;8.60;99.90;;;;;;5079952;28;20031;-81
2022/11/26 02:59:52;;;;;;;10.18;5.25;;;8.60;99.90;;;;;;5079839;28;20028;-81
2022/11/26 03:02:43;;;;;;;10.90;5.10;;;8.60;99.90;;;;;;5052560;28;20386;-81
2022/11/26 03:05:11;;;;;;;8.05;4.32;;;8.50;99.90;;;;;;5070632;28;20045;-81
2022/11/26 03:07:38;;;;;;;8.52;4.90;;;8.40;99.90;;;;;;5048723;28;20038;-81
2022/11/26 03:10:05;;;;;;;10.65;4.90;;;8.40;99.90;;;;;;5041348;28;20119;-82
2022/11/26 03:12:31;;;;;;;9.02;3.97;;;8.40;99.90;;;;;;5052946;28;20025;-82
2022/11/26 03:14:57;;;;;;;9.93;4.50;;;8.40;99.90;;;;;;5044273;28;20032;-82
2022/11/26 03:17:22;;;;;;;8.23;3.97;;;8.50;99.90;;;;;;5060868;28;20434;-82
2022/11/26 03:19:49;;;;;;;7.88;4.65;;;8.50;99.90;;;;;;5060302;28;20087;-82
2022/11/26 03:22:15;;;;;;;6.75;4.00;;;8.50;99.90;;;;;;5071599;28;20024;-81
2022/11/26 03:24:41;;;;;;;7.55;4.68;;;8.50;99.90;;;;;;5063250;28;20047;-81
2022/11/26 03:27:07;;;;;;;9.32;4.43;;;8.40;99.90;;;;;;5044014;28;20408;-81
2022/11/26 03:29:32;;;;;;;7.68;4.43;;;8.40;99.90;;;;;;5060266;28;20021;-80
2022/11/26 03:31:58;;;;;;;8.38;4.25;;;8.40;99.90;;;;;;5076867;28;20447;-80
2022/11/26 03:34:24;;;;;;;8.75;4.55;;;8.40;99.90;;;;;;5043578;28;20022;-81
2022/11/26 03:36:50;;;;;;;8.13;4.60;;;8.40;99.90;;;;;;5072336;28;20024;-81
2022/11/26 03:39:15;;;;;;;7.63;4.43;;;8.40;99.90;;;;;;5049749;28;20098;-81
2022/11/26 03:41:43;;;;;;;6.38;4.10;;;8.40;99.90;;;;;;5073028;28;20029;-81
2022/11/26 03:44:12;;;;;;;6.55;4.40;;;8.40;99.90;;;;;;5041841;28;20025;-81
2022/11/26 03:46:38;;;;;;;6.22;4.15;;;8.40;99.90;;;;;;5065699;28;20058;-80
2022/11/26 03:49:04;;;;;;;6.70;4.15;;;8.40;99.90;;;;;;5067387;28;20035;-80
2022/11/26 03:51:30;;;;;;;6.82;3.88;;;8.40;99.90;;;;;;5074078;28;20396;-80
2022/11/26 03:53:56;;;;;;;8.43;3.72;;;8.40;99.90;;;;;;5045988;28;20052;-80
2022/11/26 03:56:21;;;;;;;6.28;3.70;;;8.40;99.90;;;;;;5065273;28;20056;-81
2022/11/26 03:58:47;;;;;;;7.63;3.92;;;8.40;99.90;;;;;;5066410;28;20036;-80
2022/11/26 04:01:13;;;;;;;7.47;4.20;;;8.30;99.90;;;;;;5049745;28;20044;-81
2022/11/26 04:03:39;;;;;;;6.25;3.95;;;8.30;99.90;;;;;;5063559;28;20044;-81
2022/11/26 04:06:06;;;;;;;7.25;3.58;;;8.30;99.90;;;;;;5064264;28;20098;-81
2022/11/26 04:08:31;;;;;;;7.00;3.70;;;8.30;99.90;;;;;;5054200;28;20059;-80
2022/11/26 04:10:57;;;;;;;7.45;3.55;;;8.30;99.90;;;;;;5046335;28;20025;-80
2022/11/26 04:13:23;;;;;;;7.60;4.45;;;8.30;99.90;;;;;;5048875;28;20036;-80
2022/11/26 04:15:49;;;;;;;10.32;4.22;;;8.30;99.90;;;;;;5064351;28;20036;-80
2022/11/26 04:18:15;;;;;;;7.35;3.83;;;8.30;99.90;;;;;;5055562;28;20033;-81
2022/11/26 04:20:41;;;;;;;5.68;3.28;;;8.30;99.90;;;;;;5063652;28;20036;-80
2022/11/26 04:23:07;;;;;;;6.80;4.03;;;8.30;99.90;;;;;;5049597;28;20031;-80
2022/11/26 04:25:33;;;;;;;5.72;3.00;;;8.30;99.90;;;;;;5057142;28;20012;-79
2022/11/26 04:27:59;;;;;;;5.97;3.40;;;8.30;99.90;;;;;;5068086;28;20596;-80
2022/11/26 04:30:25;;;;;;;5.30;3.33;;;8.30;99.90;;;;;;5073841;28;20043;-79
2022/11/26 04:32:50;;;;;;;7.45;3.20;;;8.30;99.90;;;;;;5076470;28;20103;-79
2022/11/26 04:35:16;;;;;;;7.30;3.03;;;8.30;99.90;;;;;;5060093;28;20033;-79
2022/11/26 04:37:42;;;;;;;5.63;3.22;;;8.40;99.90;;;;;;5046972;28;20358;-80
2022/11/26 04:40:08;;;;;;;4.50;2.72;;;8.40;99.90;;;;;;5073153;28;20545;-79
2022/11/26 04:42:34;;;;;;;6.68;3.22;;;8.40;99.90;;;;;;5077795;28;20017;-79
2022/11/26 04:45:00;;;;;;;7.80;3.33;;;8.40;99.90;;;;;;5059903;28;20028;-79
2022/11/26 04:47:25;;;;;;;7.72;3.30;;;8.40;99.90;;;;;;5077718;28;20077;-79
2022/11/26 04:49:51;;;;;;;7.75;2.92;;;8.40;99.90;;;;;;5053355;28;20017;-79
2022/11/26 04:52:17;;;;;;;6.32;3.28;;;8.30;99.90;;;;;;5041201;28;20092;-79
2022/11/26 04:54:42;;;;;;;7.55;3.65;;;8.40;99.90;;;;;;5058956;28;20393;-79
2022/11/26 04:57:08;;;;;;;6.85;3.53;;;8.30;99.90;;;;;;5077833;28;20384;-79
2022/11/26 04:59:34;;;;;;;6.90;2.92;;;8.30;99.90;;;;;;5059516;28;20063;-79
2022/11/26 05:02:00;;;;;;;5.53;2.92;;;8.30;99.90;;;;;;5068002;28;20041;-77
2022/11/26 05:04:27;;;;;;;6.05;2.88;;;8.40;99.90;;;;;;5067022;28;20523;-78
2022/11/26 05:06:52;;;;;;;7.55;3.45;;;8.30;99.90;;;;;;5077453;28;20074;-78
2022/11/26 05:09:18;;;;;;;6.82;2.85;;;8.30;99.90;;;;;;5063448;28;20025;-78
2022/11/26 05:11:44;;;;;;;6.20;3.30;;;8.40;99.90;;;;;;5070271;28;20031;-78
2022/11/26 05:14:09;;;;;;;5.82;2.80;;;8.40;99.90;;;;;;5070152;28;20501;-78
2022/11/26 05:16:35;;;;;;;5.57;2.85;;;8.40;99.90;;;;;;5077219;28;20024;-78
2022/11/26 05:19:01;;;;;;;6.53;2.95;;;8.30;99.90;;;;;;5054088;28;20024;-78
2022/11/26 05:21:26;;;;;;;5.65;2.65;;;8.40;99.90;;;;;;5071044;28;20467;-78
2022/11/26 05:23:52;;;;;;;6.78;3.28;;;8.40;99.90;;;;;;5068994;28;20393;-78
2022/11/26 05:26:17;;;;;;;6.28;2.95;;;8.40;99.90;;;;;;5045578;28;20412;-78
2022/11/26 05:28:43;;;;;;;7.53;2.90;;;8.40;99.90;;;;;;5064984;28;20463;-78
2022/11/26 05:31:09;;;;;;;5.35;2.22;;;8.40;99.90;;;;;;5059574;28;20021;-79
2022/11/26 05:33:35;;;;;;;6.10;2.65;;;8.30;99.90;;;;;;5073320;28;20481;-81
2022/11/26 05:36:00;;;;;;;5.15;2.42;;;8.30;99.90;;;;;;5059120;28;20052;-81
2022/11/26 05:38:26;;;;;;;4.22;2.70;;;8.30;99.90;;;;;;5068367;28;20421;-78
2022/11/26 05:40:52;;;;;;;6.78;2.85;;;8.30;99.90;;;;;;5059410;28;20517;-82
2022/11/26 05:43:18;;;;;;;7.25;2.45;;;8.30;99.90;;;;;;5052896;28;20021;-82
2022/11/26 05:45:43;;;;;;;5.95;2.83;;;8.30;99.90;;;;;;5043167;28;20025;-80
2022/11/26 05:48:09;;;;;;;7.90;2.85;;;8.20;99.90;;;;;;5071473;28;20496;-80
2022/11/26 05:50:35;;;;;;;9.00;3.08;;;8.30;99.90;;;;;;5038717;28;20032;-82
2022/11/26 05:53:01;;;;;;;4.35;2.17;;;8.20;99.90;;;;;;5072797;28;20029;-83
2022/11/26 05:55:27;;;;;;;7.53;2.83;;;8.20;99.90;;;;;;5045360;28;20425;-82
2022/11/26 05:57:52;;;;;;;5.53;2.22;;;8.20;99.90;;;;;;5053884;28;20044;-81
2022/11/26 06:00:18;;;;;;;5.95;2.80;;;8.20;99.90;;;;;;5046147;28;20068;-81
2022/11/26 06:02:44;;;;;;;4.07;2.45;;;8.20;99.90;;;;;;5039231;28;20072;-81
2022/11/26 06:05:10;;;;;;;4.95;2.53;;;8.20;99.90;;;;;;5060462;28;20025;-81
2022/11/26 06:07:36;;;;;;;4.97;2.65;;;8.20;99.90;;;;;;5048910;28;20028;-82
2022/11/26 06:10:02;;;;;;;8.77;3.20;;;8.20;99.90;;;;;;5056264;28;20049;-81
2022/11/26 06:12:28;;;;;;;5.10;2.40;;;8.20;99.90;;;;;;5059829;28;20052;-82
2022/11/26 06:14:54;;;;;;;3.50;2.30;;;8.20;99.90;;;;;;5041437;28;20059;-83
2022/11/26 06:17:20;;;;;;;4.28;2.45;;;8.20;99.90;;;;;;5062059;28;20037;-82
2022/11/26 06:19:45;;;;;;;6.82;3.15;;;8.20;99.90;;;;;;5071488;28;20024;-82
2022/11/26 06:22:11;;;;;;;5.97;2.88;;;8.10;99.90;;;;;;5048138;28;20112;-82
2022/11/26 06:24:37;;;;;;;7.03;3.15;;;8.10;99.90;;;;;;5060455;28;20616;-81
2022/11/26 06:27:03;;;;;;;5.55;2.40;;;8.10;99.90;;;;;;5040572;28;20036;-82
2022/11/26 06:29:28;;;;;;;5.65;2.83;;;8.10;99.90;;;;;;5059172;28;20021;-81
2022/11/26 06:31:54;;;;;;;4.72;2.65;;;8.10;99.90;;;;;;5066835;28;20020;-81
2022/11/26 06:34:20;;;;;;;6.10;2.45;;;8.20;99.90;;;;;;5072101;28;20074;-81
2022/11/26 06:36:46;;;;;;;7.55;3.33;;;8.20;99.90;;;;;;5064002;28;20033;-81
2022/11/26 06:39:11;;;;;;;6.07;3.00;;;8.20;99.90;;;;;;5068426;28;20052;-81
2022/11/26 06:41:37;;;;;;;5.72;3.20;;;8.20;99.90;;;;;;5045159;28;20029;-81
2022/11/26 06:44:03;;;;;;;5.70;3.65;;;8.20;99.90;;;;;;5077347;28;20503;-82
2022/11/26 06:46:29;;;;;;;6.13;2.67;;;8.20;99.90;;;;;;5079836;28;20025;-81
2022/11/26 06:48:59;;;;;;;5.20;3.28;;;8.20;99.90;;;;;;5077290;28;20029;-82
2022/11/26 06:51:26;;;;;;;8.05;3.65;;;8.20;99.90;;;;;;5078508;28;20025;-82
2022/11/26 06:53:52;;;;;;;4.32;2.90;;;8.20;99.90;;;;;;5079779;28;20046;-81
2022/11/26 06:56:18;;;;;;;5.40;3.08;;;8.20;99.90;;;;;;5079628;28;20020;-81
2022/11/26 06:58:54;;;;;;;5.13;2.97;;;8.10;99.90;;;;;;5062294;28;20098;-81
2022/11/26 07:01:51;;;;;;;;;;;;;;;;;;;;;
2022/11/26 07:04:22;;;;;;;5.75;3.33;;;8.20;99.90;;;;;;5079441;28;20127;-81
2022/11/26 07:06:48;;;;;;;6.93;3.70;;;8.20;99.90;;;;;;5061968;28;20024;-81
2022/11/26 07:09:14;;;;;;;6.13;3.30;;;8.20;99.90;;;;;;5073778;28;20556;-81
2022/11/26 07:11:41;;;;;;;6.15;3.20;;;8.20;99.90;;;;;;5071959;28;20060;-81
2022/11/26 07:14:07;;;;;;;6.82;3.10;;;8.20;99.90;;;;;;5061587;28;20035;-82
2022/11/26 07:16:33;;;;;;;5.90;3.05;;;8.20;99.90;;;;;;5078101;28;20043;-81
2022/11/26 07:18:59;;;;;;;8.75;3.40;;;8.20;99.90;;;;;;5040823;28;20025;-81
2022/11/26 07:21:26;;;;;;;7.20;3.08;;;8.20;99.90;;;;;;5047759;28;20389;-81
2022/11/26 07:23:53;;;;;;;4.68;2.88;;;8.20;99.90;;;;;;5049470;28;20512;-81
2022/11/26 07:26:21;;;;;;;5.28;3.17;;;8.20;99.90;;;;;;5047990;28;20111;-81
2022/11/26 07:28:48;;;;;;;5.10;3.00;;;8.20;99.90;;;;;;5058498;28;20096;-82
2022/11/26 07:31:18;;;;;;;8.65;3.60;;;8.20;99.90;;;;;;5062029;28;21717;-82
2022/11/26 07:33:45;;;;;;;6.10;2.80;;;8.20;99.90;;;;;;5071448;28;20369;-82
2022/11/26 07:36:16;;;;;;;6.00;3.20;;;8.20;99.90;;;;;;5048627;28;20116;-82
2022/11/26 07:38:41;;;;;;;5.07;2.63;;;8.10;99.90;;;;;;5058776;28;20028;-82
2022/11/26 07:41:10;;;;;;;4.80;2.95;;;8.10;99.90;;;;;;5064265;28;20025;-83
2022/11/26 07:43:37;;;;;;;8.75;2.80;;;8.10;99.90;;;;;;5057534;28;20024;-82
2022/11/26 07:46:04;;;;;;;6.00;2.95;;;8.10;99.90;;;;;;5044834;28;20477;-80
2022/11/26 07:48:32;;;;;;;5.53;2.53;;;8.20;99.90;;;;;;5055303;28;20021;-80
2022/11/26 07:50:59;;;;;;;5.63;2.67;;;8.20;99.90;;;;;;5042493;28;20554;-82
2022/11/26 07:53:28;;;;;;;5.88;2.03;;;8.10;99.90;;;;;;5072188;28;20092;-81
2022/11/26 07:55:53;;;;;;;5.95;2.70;;;8.10;99.90;;;;;;5057454;28;20036;-82
2022/11/26 07:58:19;;;;;;;7.40;2.47;;;8.20;99.90;;;;;;5044336;28;20025;-81
2022/11/26 08:00:45;;;;;;;5.05;2.33;;;8.20;99.90;;;;;;5062117;28;20057;-82
2022/11/26 08:03:11;;;;;;;4.88;2.05;;;8.20;99.90;;;;;;5044147;28;20041;-82
2022/11/26 08:05:45;;;;;;;5.50;2.30;;;8.20;99.90;;;;;;5077629;28;20112;-82
2022/11/26 08:08:11;;;;;;;6.00;2.28;;;8.20;99.90;;;;;;5063080;28;20005;-81
2022/11/26 08:10:38;;;;;;;5.13;2.40;;;8.20;99.90;;;;;;5072737;28;20028;-82
2022/11/26 08:13:04;;;;;;;3.83;2.10;;;8.20;99.90;;;;;;5072946;28;20067;-81
2022/11/26 08:15:31;;;;;;;5.00;2.17;;;8.20;99.90;;;;;;5060645;28;20029;-81
2022/11/26 08:17:57;;;;;;;6.18;2.22;;;8.20;99.90;;;;;;5043807;28;20032;-82
2022/11/26 08:20:24;;;;;;;6.40;2.33;;;8.20;99.90;;;;;;5078271;28;20036;-82
2022/11/26 08:22:50;;;;;;;5.03;1.90;;;8.20;99.90;;;;;;5059258;28;20021;-82
2022/11/26 08:25:16;;;;;;;3.78;1.83;;;8.20;99.90;;;;;;5057672;28;20099;-82
2022/11/26 08:27:42;;;;;;;4.35;2.17;;;8.20;99.90;;;;;;5048632;28;20048;-82
2022/11/26 08:30:09;;;;;;;4.43;1.90;;;8.20;99.90;;;;;;5057547;28;20032;-83
2022/11/26 08:32:35;;;;;;;5.95;1.92;;;8.20;99.90;;;;;;5058447;28;20036;-80
2022/11/26 08:35:01;;;;;;;8.07;1.90;;;8.30;99.90;;;;;;5046460;28;20056;-82
2022/11/26 08:37:27;;;;;;;7.50;2.33;;;8.30;99.90;;;;;;5042008;28;20044;-82
2022/11/26 08:39:52;;;;;;;8.27;2.95;;;8.30;99.90;;;;;;5077714;28;20032;-83
2022/11/26 08:42:18;;;;;;;8.25;2.80;;;8.40;99.90;;;;;;5059881;28;20025;-81
2022/11/26 08:44:44;;;;;;;6.38;2.45;;;8.40;99.90;;;;;;5059793;28;20029;-82
2022/11/26 08:47:09;;;;;;;5.22;2.45;;;8.50;99.90;;;;;;5056399;28;20127;-81
2022/11/26 08:49:35;;;;;;;6.82;2.13;;;8.50;99.90;;;;;;5060582;28;20071;-82
2022/11/26 08:52:01;;;;;;;6.32;2.28;;;8.50;99.90;;;;;;5063684;28;20758;-82
2022/11/26 08:54:27;;;;;;;6.63;2.38;;;8.60;99.90;;;;;;5051596;28;20063;-81
2022/11/26 08:56:53;;;;;;;5.47;2.08;;;8.70;99.90;;;;;;5059001;28;20027;-81
2022/11/26 08:59:21;;;;;;;5.97;2.33;;;8.70;99.90;;;;;;5051286;28;20031;-81
2022/11/26 09:01:47;;;;;;;5.72;2.30;;;8.70;99.90;;;;;;5077004;28;20408;-81
2022/11/26 09:04:13;;;;;;;6.78;2.45;;;8.80;99.90;;;;;;5051383;28;21034;-81
2022/11/26 09:06:40;;;;;;;6.93;2.40;;;8.90;99.90;;;;;;5057230;28;20078;-81
2022/11/26 09:09:12;;;;;;;4.68;2.20;;;8.90;99.90;;;;;;5059675;28;20013;-81
2022/11/26 09:11:57;;;;;;;6.13;2.15;;;9.00;99.90;;;;;;5057129;28;20021;-82
2022/11/26 09:14:26;;;;;;;5.65;1.85;;;9.00;99.90;;;;;;5039092;28;20025;-82
2022/11/26 09:16:53;;;;;;;7.22;2.13;;;9.10;99.90;;;;;;5058509;28;20063;-82
2022/11/26 09:19:19;;;;;;;7.57;2.10;;;9.10;99.90;;;;;;5071438;28;20043;-82
2022/11/26 09:21:46;;;;;;;8.45;1.80;;;9.20;99.90;;;;;;5061391;28;20017;-82
2022/11/26 09:24:12;;;;;;;6.45;1.90;;;9.20;99.90;;;;;;5057464;28;20039;-83
2022/11/26 09:26:39;;;;;;;5.13;1.58;;;9.30;99.90;;;;;;5072584;28;20104;-83
2022/11/26 09:29:05;;;;;;;10.07;2.38;;;9.30;99.90;;;;;;5070269;28;20029;-81
2022/11/26 09:31:31;;;;;;;7.82;2.08;;;9.30;99.90;;;;;;5038468;28;20567;-81
2022/11/26 09:33:59;;;;;;;6.18;1.77;;;9.30;99.90;;;;;;5050674;28;20062;-82
2022/11/26 09:36:25;;;;;;;6.00;1.58;;;9.40;99.90;;;;;;5052444;28;20040;-81
2022/11/26 09:38:58;;;;;;;6.35;1.80;;;9.40;99.90;;;;;;5043313;28;20032;-81
2022/11/26 09:41:42;;;;;;;9.07;3.30;;;9.50;99.90;;;;;;5056148;28;20024;-83
2022/11/26 09:44:21;;;;;;;;;;;9.50;99.90;;;;;;5048178;28;20082;-82
2022/11/26 09:47:11;;;;;;;5.05;1.63;;;9.50;99.90;;;;;;5040139;28;19909;-82
2022/11/26 09:49:52;;;;;;;5.07;1.35;;;9.50;99.90;;;;;;5055350;28;20034;-82
2022/11/26 09:52:20;;;;;;;6.32;1.88;;;9.60;99.90;;;;;;5049531;28;20042;-82
2022/11/26 09:54:53;;;;;;;6.38;2.00;;;9.70;99.90;;;;;;5062682;28;20025;-83
2022/11/26 09:57:26;;;;;;;;;;;9.80;99.90;;;;;;5049650;28;20021;-83
2022/11/26 09:59:55;;;;;;;5.80;1.50;;;9.80;99.90;;;;;;5060175;28;19909;-84
2022/11/26 10:02:21;;;;;;;5.50;1.80;;;9.80;99.90;;;;;;5055279;28;20087;-82
2022/11/26 10:05:32;;;;;;;9.75;2.00;;;9.90;99.90;;;;;;5055685;28;20037;-85
2022/11/26 10:44:22;;;;;;;;;;;;;;;;;;;;;
2022/11/26 10:51:32;;;;;;;9.07;1.80;;;10.80;99.90;;;;;;4893870;29;20024;-83
2022/11/26 11:09:01;;;;;;;;;;;;;;;;;;;;;
2022/11/26 11:53:47;;;;;;;;;;;;;;;;;;;;;
2022/11/26 12:17:20;;;;;;;10.88;2.30;;;11.90;99.90;;;;;;4855828;29;20464;-83
2022/11/26 12:20:48;;;;;;;;;;;;;;;;;;;;;
2022/11/26 12:23:39;;;;;;;9.98;2.40;;;12.10;99.90;;;;;;4875236;29;20036;-82
2022/11/26 12:26:25;;;;;;;9.77;2.33;;;12.10;99.90;;;;;;4866870;29;20029;-81
2022/11/26 12:29:13;;;;;;;10.77;2.28;;;12.10;99.90;;;;;;4977502;28;20431;-81
2022/11/26 12:31:50;;;;;;;11.60;2.33;;;12.10;99.90;;;;;;5036937;28;20048;-81
2022/11/26 12:34:29;;;;;;;10.70;2.38;;;12.20;99.90;;;;;;5019973;28;20029;-81
2022/11/26 12:37:26;;;;;;;9.35;2.33;;;12.20;99.90;;;;;;5014256;28;20481;-81
2022/11/26 12:40:24;;;;;;;10.95;2.30;;;12.30;99.90;;;;;;5035885;28;20052;-81
2022/11/26 12:43:19;;;;;;;8.57;2.40;;;12.20;99.90;;;;;;5026392;28;20033;-82
2022/11/26 12:45:53;;;;;;;9.20;2.25;;;12.20;99.90;;;;;;5018203;28;20064;-82
2022/11/26 12:48:47;;;;;;;13.18;2.15;;;12.20;99.90;;;;;;5018063;28;20034;-82
2022/11/26 12:51:32;;;;;;;11.10;2.70;;;12.20;99.90;;;;;;5000502;28;20080;-82
2022/11/26 12:54:07;;;;;;;12.18;3.28;;;12.20;99.90;;;;;;5007576;28;20398;-82
2022/11/26 12:56:40;;;;;;;11.73;2.75;;;12.20;99.90;;;;;;5019896;28;20509;-82
2022/11/26 12:59:17;;;;;;;11.07;2.75;;;12.20;99.90;;;;;;5029729;28;20400;-82
2022/11/26 13:01:45;;;;;;;10.20;2.17;;;12.20;99.90;;;;;;5039651;28;20017;-82
2022/11/26 13:04:14;;;;;;;13.05;2.55;;;12.10;99.90;;;;;;5020241;28;20036;-82
2022/11/26 13:07:09;;;;;;;16.05;3.08;;;12.10;99.90;;;;;;5037504;28;20093;-82
2022/11/26 13:10:05;;;;;;;;;;;;;;;;;;;;;
2022/11/26 13:13:28;;;;;;;;;;;;;;;;;;;;;
2022/11/26 13:16:28;;;;;;;10.25;2.53;;;12.10;99.90;;;;;;4948249;28;20094;-85
2022/11/26 13:19:42;;;;;;;;;;;;;;;;;;;;;
2022/11/26 13:22:33;;;;;;;10.82;2.72;;;12.10;99.90;;;;;;4985393;28;20573;-84
2022/11/26 13:25:29;;;;;;;11.50;2.60;;;12.10;99.90;;;;;;5010918;28;20073;-84
2022/11/26 13:28:22;;;;;;;10.30;2.10;;;12.10;99.90;;;;;;5037323;28;20079;-83
2022/11/26 13:31:30;;;;;;;11.60;2.78;;;12.00;99.90;;;;;;5034208;28;20054;-83
2022/11/26 13:34:18;;;;;;;11.25;2.30;;;12.00;99.90;;;;;;5017541;28;20018;-83
2022/11/26 13:37:15;;;;;;;11.32;2.58;;;12.00;99.90;;;;;;5029296;28;20072;-83
2022/11/26 13:40:15;;;;;;;12.25;2.55;;;12.00;99.90;;;;;;5026867;28;20017;-83
2022/11/26 13:43:17;;;;;;;10.02;2.47;;;12.00;99.90;;;;;;5037321;28;20033;-83
2022/11/26 13:46:25;;;;;;;;;;;;;;;;;;;;;
2022/11/26 15:14:43;;;;;;;8.25;2.30;;;12.00;99.90;;;;;;6206238;22;20024;31
2022/11/26 15:17:20;;;;;;;8.40;2.80;;;12.00;99.90;;;;;;5006474;28;20038;-84
2022/11/26 15:20:00;;;;;;;11.70;2.92;;;11.90;99.90;;;;;;5001873;28;20036;-85
2022/11/26 15:26:35;;;;;;;12.50;2.47;;;12.00;99.90;;;;;;4977772;28;20412;-86
2022/11/26 15:29:18;;;;;;;9.00;2.70;;;12.00;99.90;;;;;;4979365;28;20045;-86
2022/11/26 15:31:56;;;;;;;10.27;2.83;;;12.00;99.90;;;;;;5001247;28;20033;-83
2022/11/26 15:34:31;;;;;;;11.38;2.83;;;11.90;99.90;;;;;;5001000;28;20781;-85
2022/11/26 15:41:34;;;;;;;10.15;3.45;;;11.90;99.90;;;;;;4959083;29;20035;-86
2022/11/26 15:53:44;;;;;;;12.43;3.08;;;11.80;99.90;;;;;;4937743;29;20131;-84
2022/11/26 15:56:16;;;;;;;11.40;3.17;;;11.80;99.90;;;;;;5034574;28;20033;-84
2022/11/26 15:58:50;;;;;;;16.20;3.15;;;11.80;99.90;;;;;;5002104;28;20026;-88
2022/11/26 16:01:19;;;;;;;11.38;2.78;;;11.80;99.90;;;;;;5002100;28;20482;-84
2022/11/26 16:04:28;;;;;;;13.43;3.00;;;11.80;99.90;;;;;;5001621;28;20501;-87
2022/11/26 16:07:40;;;;;;;;;;;;;;;;;;;;;
2022/11/26 16:10:28;;;;;;;;;;;;;;;;;;;;;
2022/11/26 16:14:32;;;;;;;7.65;2.78;;;11.80;99.90;;;;;;5019163;28;20442;-89
2022/11/26 16:16:27;;;;;;;8.88;2.53;;;11.80;99.90;;;;;;4985266;28;20046;-87
2022/11/26 16:19:00;;;;;;;10.10;2.60;;;11.80;99.90;;;;;;5001181;28;20041;-82
2022/11/26 16:21:32;;;;;;;5.63;2.60;;;11.80;99.90;;;;;;5001383;28;20084;-85
2022/11/26 16:27:21;;;;;;;10.55;2.63;;;11.70;99.90;;;;;;4969317;28;20037;-86
2022/11/26 16:30:41;;;;;;;9.75;2.70;;;11.80;99.90;;;;;;4989299;28;20080;-90
2022/11/26 16:33:06;;;;;;;12.32;2.50;;;11.80;99.90;;;;;;4984858;28;20038;-83
2022/11/26 16:35:35;;;;;;;11.52;3.33;;;11.80;99.90;;;;;;5000710;28;20084;-85
2022/11/26 16:38:01;;;;;;;8.77;2.58;;;11.70;99.90;;;;;;5001531;28;20389;-86
2022/11/26 16:40:34;;;;;;;10.30;3.08;;;11.80;99.90;;;;;;5000951;28;20030;-84
2022/11/26 16:42:59;;;;;;;7.38;2.28;;;11.70;99.90;;;;;;5000438;28;20033;-83
2022/11/26 16:45:25;;;;;;;8.73;2.83;;;11.70;99.90;;;;;;5000543;28;20030;-82
2022/11/26 16:47:53;;;;;;;12.15;3.08;;;11.70;99.90;;;;;;4999286;28;20060;-82
2022/11/26 16:50:25;;;;;;;8.38;2.63;;;11.70;99.90;;;;;;4998259;28;20036;-83
2022/11/26 16:52:52;;;;;;;6.97;2.38;;;11.70;99.90;;;;;;5015634;28;20037;-83
2022/11/26 16:55:20;;;;;;;9.23;2.85;;;11.70;99.90;;;;;;4999571;28;20029;-82
2022/11/26 16:57:49;;;;;;;8.23;2.47;;;11.70;99.90;;;;;;5018124;28;20026;-82
2022/11/26 17:00:18;;;;;;;10.55;2.80;;;11.70;99.90;;;;;;5000202;28;20498;-84
2022/11/26 17:02:47;;;;;;;9.90;2.80;;;11.60;99.90;;;;;;5000595;28;20039;-85
2022/11/26 17:05:13;;;;;;;13.75;2.85;;;11.70;99.90;;;;;;5000833;28;20026;-82
2022/11/26 17:07:51;;;;;;;9.07;2.35;;;11.60;99.90;;;;;;5000279;28;20018;-84
2022/11/26 17:10:24;;;;;;;7.95;2.85;;;11.60;99.90;;;;;;5016934;28;20029;-85
2022/11/26 17:12:50;;;;;;;10.02;2.90;;;11.60;99.90;;;;;;5017846;28;20026;-81